createdAt,value
2017-12-17T00:00:41.640Z,1014.54
2017-12-17T00:01:50.462Z,1014.62
2017-12-17T00:02:59.286Z,1014.6
2017-12-17T00:04:08.112Z,1014.63
2017-12-17T00:05:16.936Z,1014.63
2017-12-17T00:06:25.759Z,1014.6
2017-12-17T00:07:34.586Z,1014.56
2017-12-17T00:08:43.414Z,1014.64
2017-12-17T00:09:52.438Z,1014.61
2017-12-17T00:11:01.263Z,1014.64
2017-12-17T00:12:10.083Z,1014.67
2017-12-17T00:13:18.904Z,1014.62
2017-12-17T00:14:27.727Z,1014.62
2017-12-17T00:15:36.557Z,1014.58
2017-12-17T00:16:45.376Z,1014.66
2017-12-17T00:17:54.469Z,1014.63
2017-12-17T00:19:03.595Z,1014.65
2017-12-17T00:20:12.394Z,1014.67
2017-12-17T00:21:21.218Z,1014.61
2017-12-17T00:22:30.040Z,1014.62
2017-12-17T00:23:38.863Z,1014.67
2017-12-17T00:24:47.687Z,1014.66
2017-12-17T00:25:56.512Z,1014.69
2017-12-17T00:27:05.334Z,1014.63
2017-12-17T00:28:14.157Z,1014.63
2017-12-17T00:29:22.979Z,1014.63
2017-12-17T00:30:31.799Z,1014.68
2017-12-17T00:31:40.624Z,1014.67
2017-12-17T00:32:50.023Z,1014.75
2017-12-17T00:33:58.845Z,1014.72
2017-12-17T00:35:07.667Z,1014.79
2017-12-17T00:36:16.765Z,1014.81
2017-12-17T00:37:25.587Z,1014.78
2017-12-17T00:38:34.561Z,1014.8
2017-12-17T00:39:43.383Z,1014.79
2017-12-17T00:40:52.206Z,1014.76
2017-12-17T00:42:01.031Z,1014.79
2017-12-17T00:43:09.854Z,1014.85
2017-12-17T00:44:18.952Z,1014.87
2017-12-17T00:45:27.775Z,1014.87
2017-12-17T00:46:37.154Z,1014.89
2017-12-17T00:47:45.977Z,1014.87
2017-12-17T00:48:54.798Z,1014.94
2017-12-17T00:50:03.622Z,1014.9
2017-12-17T00:51:12.447Z,1014.96
2017-12-17T00:52:21.270Z,1014.96
2017-12-17T00:53:30.394Z,1015.01
2017-12-17T00:54:39.218Z,1014.98
2017-12-17T00:55:48.089Z,1015.04
2017-12-17T00:56:56.910Z,1015.08
2017-12-17T00:58:05.734Z,1015.09
2017-12-17T00:59:14.557Z,1014.99
2017-12-17T01:00:23.379Z,1014.99
2017-12-17T01:01:32.528Z,1015.01
2017-12-17T01:02:41.351Z,1015.02
2017-12-17T01:03:50.172Z,1015.05
2017-12-17T01:04:58.993Z,1015.04
2017-12-17T01:06:07.818Z,1015
2017-12-17T01:07:16.641Z,1015.06
2017-12-17T01:08:25.735Z,1015.04
2017-12-17T01:09:34.833Z,1015.05
2017-12-17T01:10:43.656Z,1015.09
2017-12-17T01:11:52.482Z,1015.02
2017-12-17T01:13:01.304Z,1015.04
2017-12-17T01:14:10.125Z,1015.03
2017-12-17T01:15:18.948Z,1014.97
2017-12-17T01:16:27.778Z,1014.99
2017-12-17T01:17:36.594Z,1015.01
2017-12-17T01:18:45.567Z,1014.96
2017-12-17T01:19:54.392Z,1014.99
2017-12-17T01:21:03.217Z,1015
2017-12-17T01:22:12.039Z,1015.04
2017-12-17T01:23:20.862Z,1015
2017-12-17T01:24:29.687Z,1015.08
2017-12-17T01:25:38.510Z,1015.1
2017-12-17T01:26:47.332Z,1015.15
2017-12-17T01:27:56.155Z,1015.22
2017-12-17T01:29:04.983Z,1015.18
2017-12-17T01:30:14.053Z,1015.24
2017-12-17T01:31:22.876Z,1015.22
2017-12-17T01:32:31.698Z,1015.23
2017-12-17T01:33:40.522Z,1015.24
2017-12-17T01:34:49.345Z,1015.23
2017-12-17T01:35:58.435Z,1015.26
2017-12-17T01:37:07.532Z,1015.25
2017-12-17T01:38:16.356Z,1015.26
2017-12-17T01:39:25.175Z,1015.28
2017-12-17T01:40:34.000Z,1015.29
2017-12-17T01:41:42.977Z,1015.33
2017-12-17T01:42:52.074Z,1015.31
2017-12-17T01:44:00.895Z,1015.34
2017-12-17T01:45:09.716Z,1015.36
2017-12-17T01:46:18.538Z,1015.39
2017-12-17T01:47:27.408Z,1015.4
2017-12-17T01:48:36.233Z,1015.37
2017-12-17T01:49:45.061Z,1015.35
2017-12-17T01:50:54.158Z,1015.38
2017-12-17T01:52:02.980Z,1015.4
2017-12-17T01:53:11.904Z,1015.4
2017-12-17T01:54:20.726Z,1015.38
2017-12-17T01:55:29.548Z,1015.36
2017-12-17T01:56:38.370Z,1015.38
2017-12-17T01:57:47.529Z,1015.38
2017-12-17T01:58:56.450Z,1015.34
2017-12-17T02:00:05.272Z,1015.38
2017-12-17T02:01:14.095Z,1015.36
2017-12-17T02:02:22.917Z,1015.36
2017-12-17T02:03:31.739Z,1015.38
2017-12-17T02:04:40.664Z,1015.38
2017-12-17T02:05:49.486Z,1015.43
2017-12-17T02:06:58.309Z,1015.43
2017-12-17T02:08:07.133Z,1015.41
2017-12-17T02:09:15.954Z,1015.47
2017-12-17T02:10:24.926Z,1015.52
2017-12-17T02:11:33.749Z,1015.53
2017-12-17T02:12:42.570Z,1015.54
2017-12-17T02:13:51.391Z,1015.53
2017-12-17T02:15:00.489Z,1015.53
2017-12-17T02:16:09.313Z,1015.53
2017-12-17T02:17:18.132Z,1015.6
2017-12-17T02:18:26.956Z,1015.58
2017-12-17T02:19:35.776Z,1015.57
2017-12-17T02:20:44.598Z,1015.59
2017-12-17T02:21:53.572Z,1015.49
2017-12-17T02:23:02.400Z,1015.52
2017-12-17T02:24:11.227Z,1015.53
2017-12-17T02:25:20.323Z,1015.54
2017-12-17T02:26:29.145Z,1015.5
2017-12-17T02:27:38.120Z,1015.45
2017-12-17T02:28:47.212Z,1015.47
2017-12-17T02:29:56.033Z,1015.5
2017-12-17T02:31:05.137Z,1015.46
2017-12-17T02:32:13.958Z,1015.55
2017-12-17T02:33:22.785Z,1015.53
2017-12-17T02:34:31.606Z,1015.5
2017-12-17T02:35:40.997Z,1015.53
2017-12-17T02:36:49.815Z,1015.48
2017-12-17T02:37:58.633Z,1015.48
2017-12-17T02:39:07.608Z,1015.51
2017-12-17T02:40:16.423Z,1015.49
2017-12-17T02:41:25.519Z,1015.53
2017-12-17T02:42:34.343Z,1015.55
2017-12-17T02:43:43.169Z,1015.58
2017-12-17T02:44:52.263Z,1015.6
2017-12-17T02:46:01.364Z,1015.6
2017-12-17T02:47:10.186Z,1015.65
2017-12-17T02:48:19.287Z,1015.63
2017-12-17T02:49:28.110Z,1015.71
2017-12-17T02:50:37.035Z,1015.67
2017-12-17T02:51:46.133Z,1015.75
2017-12-17T02:52:54.956Z,1015.74
2017-12-17T02:54:03.778Z,1015.7
2017-12-17T02:55:12.601Z,1015.75
2017-12-17T02:56:21.523Z,1015.72
2017-12-17T02:57:30.343Z,1015.74
2017-12-17T02:58:39.441Z,1015.78
2017-12-17T02:59:48.265Z,1015.82
2017-12-17T03:00:57.088Z,1015.81
2017-12-17T03:02:06.061Z,1015.83
2017-12-17T03:03:14.881Z,1015.87
2017-12-17T03:04:23.706Z,1015.94
2017-12-17T03:05:32.531Z,1015.98
2017-12-17T03:06:41.353Z,1015.98
2017-12-17T03:07:50.177Z,1015.94
2017-12-17T03:08:58.997Z,1015.94
2017-12-17T03:10:07.821Z,1015.99
2017-12-17T03:11:16.644Z,1015.93
2017-12-17T03:12:25.466Z,1015.95
2017-12-17T03:13:34.340Z,1015.97
2017-12-17T03:14:43.163Z,1015.97
2017-12-17T03:15:51.983Z,1015.97
2017-12-17T03:17:00.805Z,1015.98
2017-12-17T03:18:09.626Z,1016.04
2017-12-17T03:19:18.447Z,1016.09
2017-12-17T03:20:27.277Z,1016.08
2017-12-17T03:21:36.125Z,1016.13
2017-12-17T03:22:45.193Z,1016.16
2017-12-17T03:23:54.012Z,1016.18
2017-12-17T03:25:02.886Z,1016.14
2017-12-17T03:26:11.984Z,1016.15
2017-12-17T03:27:20.806Z,1016.12
2017-12-17T03:28:29.629Z,1016.12
2017-12-17T03:29:38.456Z,1016.1
2017-12-17T03:30:47.285Z,1016.09
2017-12-17T03:31:56.109Z,1016.12
2017-12-17T03:33:05.220Z,1016.1
2017-12-17T03:34:14.042Z,1016.12
2017-12-17T03:35:22.862Z,1016.11
2017-12-17T03:36:32.258Z,1016.08
2017-12-17T03:37:41.081Z,1016.11
2017-12-17T03:38:49.903Z,1016.12
2017-12-17T03:39:58.722Z,1016.14
2017-12-17T03:41:08.096Z,1016.12
2017-12-17T03:42:17.069Z,1016.16
2017-12-17T03:43:25.891Z,1016.16
2017-12-17T03:44:34.990Z,1016.2
2017-12-17T03:45:43.809Z,1016.23
2017-12-17T03:46:52.631Z,1016.27
2017-12-17T03:48:01.604Z,1016.33
2017-12-17T03:49:10.429Z,1016.34
2017-12-17T03:50:19.248Z,1016.4
2017-12-17T03:51:28.073Z,1016.39
2017-12-17T03:52:36.898Z,1016.44
2017-12-17T03:53:45.994Z,1016.41
2017-12-17T03:54:54.820Z,1016.4
2017-12-17T03:56:03.637Z,1016.39
2017-12-17T03:57:12.466Z,1016.36
2017-12-17T03:58:21.835Z,1016.32
2017-12-17T03:59:30.758Z,1016.31
2017-12-17T04:00:39.579Z,1016.32
2017-12-17T04:01:48.402Z,1016.28
2017-12-17T04:02:57.225Z,1016.27
2017-12-17T04:04:06.319Z,1016.28
2017-12-17T04:05:15.241Z,1016.27
2017-12-17T04:06:24.124Z,1016.22
2017-12-17T04:07:32.885Z,1016.26
2017-12-17T04:08:41.988Z,1016.32
2017-12-17T04:09:50.810Z,1016.37
2017-12-17T04:10:59.734Z,1016.33
2017-12-17T04:12:08.560Z,1016.38
2017-12-17T04:13:17.382Z,1016.39
2017-12-17T04:14:26.206Z,1016.49
2017-12-17T04:15:35.030Z,1016.62
2017-12-17T04:16:44.555Z,1016.57
2017-12-17T04:17:53.377Z,1016.62
2017-12-17T04:19:02.198Z,1016.63
2017-12-17T04:20:11.024Z,1016.7
2017-12-17T04:21:19.842Z,1016.7
2017-12-17T04:22:28.665Z,1016.75
2017-12-17T04:23:37.487Z,1016.78
2017-12-17T04:24:46.309Z,1016.81
2017-12-17T04:25:55.130Z,1016.83
2017-12-17T04:27:03.956Z,1016.87
2017-12-17T04:28:13.080Z,1016.82
2017-12-17T04:29:21.904Z,1016.83
2017-12-17T04:30:30.727Z,1016.84
2017-12-17T04:31:39.551Z,1016.8
2017-12-17T04:32:48.376Z,1016.88
2017-12-17T04:33:57.197Z,1016.89
2017-12-17T04:35:06.018Z,1016.9
2017-12-17T04:36:14.841Z,1016.91
2017-12-17T04:37:23.661Z,1016.87
2017-12-17T04:38:32.483Z,1016.87
2017-12-17T04:39:41.605Z,1016.88
2017-12-17T04:40:50.430Z,1016.91
2017-12-17T04:41:59.253Z,1016.91
2017-12-17T04:43:08.080Z,1016.92
2017-12-17T04:44:16.900Z,1016.92
2017-12-17T04:45:25.824Z,1016.98
2017-12-17T04:46:34.647Z,1017.01
2017-12-17T04:47:43.468Z,1017.02
2017-12-17T04:48:52.291Z,1017.01
2017-12-17T04:50:01.114Z,1017.05
2017-12-17T04:51:10.366Z,1017.03
2017-12-17T04:52:19.190Z,1017.05
2017-12-17T04:53:28.010Z,1017.07
2017-12-17T04:54:36.834Z,1017.12
2017-12-17T04:55:45.655Z,1017.12
2017-12-17T04:56:54.479Z,1017.09
2017-12-17T04:58:03.304Z,1017.22
2017-12-17T04:59:12.124Z,1017.15
2017-12-17T05:00:20.946Z,1017.19
2017-12-17T05:01:29.772Z,1017.2
2017-12-17T05:02:38.746Z,1017.24
2017-12-17T05:03:47.567Z,1017.23
2017-12-17T05:04:56.390Z,1017.22
2017-12-17T05:06:05.212Z,1017.3
2017-12-17T05:07:14.036Z,1017.35
2017-12-17T05:08:22.910Z,1017.3
2017-12-17T05:09:31.731Z,1017.33
2017-12-17T05:10:40.556Z,1017.3
2017-12-17T05:11:49.379Z,1017.38
2017-12-17T05:12:58.201Z,1017.38
2017-12-17T05:14:07.348Z,1017.38
2017-12-17T05:15:16.172Z,1017.44
2017-12-17T05:16:25.268Z,1017.44
2017-12-17T05:17:34.091Z,1017.45
2017-12-17T05:18:42.918Z,1017.5
2017-12-17T05:19:51.891Z,1017.5
2017-12-17T05:21:00.993Z,1017.53
2017-12-17T05:22:09.816Z,1017.54
2017-12-17T05:23:18.639Z,1017.56
2017-12-17T05:24:27.459Z,1017.6
2017-12-17T05:25:36.658Z,1017.65
2017-12-17T05:26:45.479Z,1017.62
2017-12-17T05:27:54.302Z,1017.63
2017-12-17T05:29:03.125Z,1017.71
2017-12-17T05:30:11.948Z,1017.69
2017-12-17T05:31:20.771Z,1017.72
2017-12-17T05:32:29.594Z,1017.77
2017-12-17T05:33:38.696Z,1017.77
2017-12-17T05:34:47.519Z,1017.74
2017-12-17T05:35:56.338Z,1017.77
2017-12-17T05:37:05.540Z,1017.76
2017-12-17T05:38:14.634Z,1017.79
2017-12-17T05:39:23.453Z,1017.76
2017-12-17T05:40:32.276Z,1017.79
2017-12-17T05:41:41.098Z,1017.84
2017-12-17T05:42:49.972Z,1017.86
2017-12-17T05:43:58.795Z,1017.86
2017-12-17T05:45:07.617Z,1017.9
2017-12-17T05:46:17.111Z,1017.83
2017-12-17T05:47:25.934Z,1017.87
2017-12-17T05:48:34.857Z,1017.9
2017-12-17T05:49:43.682Z,1017.95
2017-12-17T05:50:52.503Z,1017.94
2017-12-17T05:52:01.329Z,1017.98
2017-12-17T05:53:10.151Z,1017.96
2017-12-17T05:54:18.974Z,1017.97
2017-12-17T05:55:28.069Z,1017.99
2017-12-17T05:56:36.900Z,1017.99
2017-12-17T05:57:45.720Z,1018.02
2017-12-17T05:58:54.544Z,1018
2017-12-17T06:00:03.422Z,1018.05
2017-12-17T06:01:12.274Z,1018.01
2017-12-17T06:02:21.097Z,1018.04
2017-12-17T06:03:29.919Z,1018.02
2017-12-17T06:04:38.742Z,1018.06
2017-12-17T06:05:47.601Z,1018.08
2017-12-17T06:06:56.388Z,1018.08
2017-12-17T06:08:05.208Z,1018.16
2017-12-17T06:09:14.030Z,1018.12
2017-12-17T06:10:22.852Z,1018.14
2017-12-17T06:11:31.725Z,1018.21
2017-12-17T06:12:40.553Z,1018.29
2017-12-17T06:13:49.374Z,1018.29
2017-12-17T06:14:58.197Z,1018.31
2017-12-17T06:16:07.019Z,1018.34
2017-12-17T06:17:16.143Z,1018.36
2017-12-17T06:18:25.238Z,1018.41
2017-12-17T06:19:34.333Z,1018.38
2017-12-17T06:20:43.156Z,1018.41
2017-12-17T06:21:51.977Z,1018.43
2017-12-17T06:23:01.226Z,1018.42
2017-12-17T06:24:10.049Z,1018.46
2017-12-17T06:25:18.871Z,1018.47
2017-12-17T06:26:27.695Z,1018.5
2017-12-17T06:27:36.523Z,1018.47
2017-12-17T06:28:45.446Z,1018.49
2017-12-17T06:29:54.264Z,1018.51
2017-12-17T06:31:03.088Z,1018.51
2017-12-17T06:32:11.910Z,1018.53
2017-12-17T06:33:20.734Z,1018.52
2017-12-17T06:34:29.884Z,1018.58
2017-12-17T06:35:38.715Z,1018.62
2017-12-17T06:36:47.528Z,1018.62
2017-12-17T06:37:56.350Z,1018.59
2017-12-17T06:39:05.172Z,1018.59
2017-12-17T06:40:13.994Z,1018.63
2017-12-17T06:41:22.818Z,1018.61
2017-12-17T06:42:31.640Z,1018.65
2017-12-17T06:43:40.463Z,1018.62
2017-12-17T06:44:49.284Z,1018.65
2017-12-17T06:45:58.429Z,1018.61
2017-12-17T06:47:07.254Z,1018.66
2017-12-17T06:48:16.077Z,1018.69
2017-12-17T06:49:24.895Z,1018.69
2017-12-17T06:50:33.720Z,1018.68
2017-12-17T06:51:42.692Z,1018.76
2017-12-17T06:52:51.515Z,1018.75
2017-12-17T06:54:00.336Z,1018.69
2017-12-17T06:55:09.159Z,1018.76
2017-12-17T06:56:17.978Z,1018.79
2017-12-17T06:57:26.851Z,1018.76
2017-12-17T06:58:35.949Z,1018.78
2017-12-17T06:59:44.774Z,1018.85
2017-12-17T07:00:53.597Z,1018.89
2017-12-17T07:02:02.417Z,1018.85
2017-12-17T07:03:11.289Z,1018.85
2017-12-17T07:04:20.113Z,1018.92
2017-12-17T07:05:28.934Z,1018.94
2017-12-17T07:06:37.756Z,1018.97
2017-12-17T07:07:46.578Z,1019
2017-12-17T07:08:55.780Z,1019.06
2017-12-17T07:10:04.603Z,1019.09
2017-12-17T07:11:13.700Z,1019.11
2017-12-17T07:12:22.528Z,1019.14
2017-12-17T07:13:31.344Z,1019.14
2017-12-17T07:14:40.322Z,1019.24
2017-12-17T07:15:49.418Z,1019.21
2017-12-17T07:16:58.240Z,1019.19
2017-12-17T07:18:07.061Z,1019.22
2017-12-17T07:19:15.883Z,1019.19
2017-12-17T07:20:24.705Z,1019.21
2017-12-17T07:21:33.528Z,1019.19
2017-12-17T07:22:42.348Z,1019.24
2017-12-17T07:23:51.171Z,1019.23
2017-12-17T07:25:00.543Z,1019.27
2017-12-17T07:26:09.365Z,1019.26
2017-12-17T07:27:18.188Z,1019.29
2017-12-17T07:28:27.011Z,1019.33
2017-12-17T07:29:35.832Z,1019.35
2017-12-17T07:30:44.653Z,1019.34
2017-12-17T07:31:53.577Z,1019.39
2017-12-17T07:33:02.396Z,1019.37
2017-12-17T07:34:11.215Z,1019.38
2017-12-17T07:35:20.039Z,1019.38
2017-12-17T07:36:28.861Z,1019.37
2017-12-17T07:37:37.935Z,1019.4
2017-12-17T07:38:47.034Z,1019.4
2017-12-17T07:39:55.853Z,1019.36
2017-12-17T07:41:04.676Z,1019.38
2017-12-17T07:42:13.498Z,1019.4
2017-12-17T07:43:22.619Z,1019.45
2017-12-17T07:44:31.440Z,1019.47
2017-12-17T07:45:40.263Z,1019.44
2017-12-17T07:46:49.086Z,1019.46
2017-12-17T07:47:57.908Z,1019.48
2017-12-17T07:49:06.831Z,1019.5
2017-12-17T07:50:15.655Z,1019.53
2017-12-17T07:51:24.750Z,1019.56
2017-12-17T07:52:33.574Z,1019.56
2017-12-17T07:53:42.795Z,1019.61
2017-12-17T07:54:51.769Z,1019.6
2017-12-17T07:56:00.593Z,1019.61
2017-12-17T07:57:09.416Z,1019.65
2017-12-17T07:58:18.240Z,1019.67
2017-12-17T07:59:27.065Z,1019.67
2017-12-17T08:00:35.889Z,1019.66
2017-12-17T08:01:44.712Z,1019.7
2017-12-17T08:02:53.538Z,1019.75
2017-12-17T08:04:02.633Z,1019.73
2017-12-17T08:05:11.456Z,1019.76
2017-12-17T08:06:20.328Z,1019.7
2017-12-17T08:07:29.152Z,1019.72
2017-12-17T08:08:37.974Z,1019.72
2017-12-17T08:09:46.798Z,1019.74
2017-12-17T08:10:55.626Z,1019.76
2017-12-17T08:12:04.495Z,1019.8
2017-12-17T08:13:13.316Z,1019.82
2017-12-17T08:14:22.138Z,1019.81
2017-12-17T08:15:30.963Z,1019.88
2017-12-17T08:16:39.785Z,1019.92
2017-12-17T08:17:48.759Z,1019.93
2017-12-17T08:18:57.582Z,1019.94
2017-12-17T08:20:06.414Z,1019.99
2017-12-17T08:21:15.236Z,1020.01
2017-12-17T08:22:24.063Z,1020.02
2017-12-17T08:23:33.031Z,1020.08
2017-12-17T08:24:42.129Z,1020.05
2017-12-17T08:25:50.952Z,1020.1
2017-12-17T08:26:59.774Z,1020.13
2017-12-17T08:28:08.596Z,1020.11
2017-12-17T08:29:17.521Z,1020.15
2017-12-17T08:30:26.345Z,1020.15
2017-12-17T08:31:35.167Z,1020.2
2017-12-17T08:32:43.991Z,1020.2
2017-12-17T08:33:52.813Z,1020.25
2017-12-17T08:35:01.637Z,1020.26
2017-12-17T08:36:10.459Z,1020.27
2017-12-17T08:37:19.342Z,1020.27
2017-12-17T08:38:28.435Z,1020.31
2017-12-17T08:39:37.256Z,1020.35
2017-12-17T08:40:46.183Z,1020.36
2017-12-17T08:41:55.280Z,1020.37
2017-12-17T08:43:04.103Z,1020.39
2017-12-17T08:44:12.925Z,1020.38
2017-12-17T08:45:21.747Z,1020.39
2017-12-17T08:46:30.621Z,1020.41
2017-12-17T08:47:39.451Z,1020.4
2017-12-17T08:48:48.548Z,1020.38
2017-12-17T08:49:57.372Z,1020.39
2017-12-17T08:51:06.195Z,1020.41
2017-12-17T08:52:15.118Z,1020.45
2017-12-17T08:53:23.942Z,1020.48
2017-12-17T08:54:32.765Z,1020.49
2017-12-17T08:55:41.588Z,1020.5
2017-12-17T08:56:50.409Z,1020.52
2017-12-17T08:57:59.382Z,1020.58
2017-12-17T08:59:08.204Z,1020.63
2017-12-17T09:00:17.026Z,1020.61
2017-12-17T09:01:25.852Z,1020.61
2017-12-17T09:02:34.948Z,1020.63
2017-12-17T09:03:44.024Z,1020.64
2017-12-17T09:04:52.845Z,1020.72
2017-12-17T09:06:01.669Z,1020.73
2017-12-17T09:07:10.491Z,1020.77
2017-12-17T09:08:19.312Z,1020.79
2017-12-17T09:09:28.133Z,1020.81
2017-12-17T09:10:36.957Z,1020.84
2017-12-17T09:11:46.052Z,1020.86
2017-12-17T09:12:54.875Z,1020.83
2017-12-17T09:14:03.704Z,1020.92
2017-12-17T09:15:12.523Z,1020.92
2017-12-17T09:16:21.616Z,1020.93
2017-12-17T09:17:30.444Z,1020.97
2017-12-17T09:18:39.541Z,1021.01
2017-12-17T09:19:48.364Z,1021.03
2017-12-17T09:20:57.288Z,1021.04
2017-12-17T09:22:06.111Z,1021.07
2017-12-17T09:23:14.935Z,1021.07
2017-12-17T09:24:23.757Z,1021.12
2017-12-17T09:25:32.581Z,1021.05
2017-12-17T09:26:41.556Z,1021.07
2017-12-17T09:27:50.380Z,1021.09
2017-12-17T09:28:59.203Z,1021.15
2017-12-17T09:30:08.302Z,1021.19
2017-12-17T09:31:17.125Z,1021.17
2017-12-17T09:32:26.201Z,1021.2
2017-12-17T09:33:35.298Z,1021.24
2017-12-17T09:34:44.118Z,1021.21
2017-12-17T09:35:52.943Z,1021.19
2017-12-17T09:37:01.767Z,1021.21
2017-12-17T09:38:10.743Z,1021.21
2017-12-17T09:39:19.566Z,1021.26
2017-12-17T09:40:28.389Z,1021.29
2017-12-17T09:41:37.215Z,1021.3
2017-12-17T09:42:46.044Z,1021.28
2017-12-17T09:43:54.918Z,1021.31
2017-12-17T09:45:03.745Z,1021.3
2017-12-17T09:46:12.568Z,1021.36
2017-12-17T09:47:21.397Z,1021.35
2017-12-17T09:48:30.233Z,1021.36
2017-12-17T09:49:39.044Z,1021.33
2017-12-17T09:50:47.868Z,1021.35
2017-12-17T09:51:56.694Z,1021.38
2017-12-17T09:53:05.520Z,1021.37
2017-12-17T09:54:14.342Z,1021.37
2017-12-17T09:55:23.165Z,1021.42
2017-12-17T09:56:31.995Z,1021.45
2017-12-17T09:57:41.092Z,1021.46
2017-12-17T09:58:49.915Z,1021.52
2017-12-17T09:59:58.739Z,1021.46
2017-12-17T10:01:07.565Z,1021.53
2017-12-17T10:02:16.389Z,1021.5
2017-12-17T10:03:25.214Z,1021.52
2017-12-17T10:04:34.038Z,1021.5
2017-12-17T10:05:42.862Z,1021.43
2017-12-17T10:06:52.008Z,1021.45
2017-12-17T10:08:00.833Z,1021.43
2017-12-17T10:09:09.655Z,1021.43
2017-12-17T10:10:18.481Z,1021.41
2017-12-17T10:11:27.305Z,1021.44
2017-12-17T10:12:36.282Z,1021.42
2017-12-17T10:13:45.207Z,1021.43
2017-12-17T10:14:54.032Z,1021.42
2017-12-17T10:16:02.861Z,1021.41
2017-12-17T10:17:11.680Z,1021.39
2017-12-17T10:18:20.561Z,1021.44
2017-12-17T10:19:29.661Z,1021.45
2017-12-17T10:20:38.758Z,1021.41
2017-12-17T10:21:47.860Z,1021.41
2017-12-17T10:22:56.685Z,1021.39
2017-12-17T10:24:05.609Z,1021.35
2017-12-17T10:25:14.435Z,1021.36
2017-12-17T10:26:23.261Z,1021.3
2017-12-17T10:27:32.090Z,1021.31
2017-12-17T10:28:40.912Z,1021.28
2017-12-17T10:29:49.788Z,1021.25
2017-12-17T10:30:58.614Z,1021.26
2017-12-17T10:32:07.721Z,1021.25
2017-12-17T10:33:16.545Z,1021.27
2017-12-17T10:34:25.370Z,1021.28
2017-12-17T10:35:34.295Z,1021.3
2017-12-17T10:36:43.118Z,1021.27
2017-12-17T10:37:51.940Z,1021.31
2017-12-17T10:39:00.766Z,1021.27
2017-12-17T10:40:09.594Z,1021.26
2017-12-17T10:41:18.568Z,1021.26
2017-12-17T10:42:27.394Z,1021.25
2017-12-17T10:43:36.220Z,1021.3
2017-12-17T10:44:45.045Z,1021.31
2017-12-17T10:45:53.870Z,1021.26
2017-12-17T10:47:02.794Z,1021.25
2017-12-17T10:48:11.620Z,1021.27
2017-12-17T10:49:20.442Z,1021.21
2017-12-17T10:50:29.265Z,1021.22
2017-12-17T10:51:38.091Z,1021.22
2017-12-17T10:52:47.168Z,1021.19
2017-12-17T10:53:55.994Z,1021.19
2017-12-17T10:55:04.817Z,1021.19
2017-12-17T10:56:13.640Z,1021.19
2017-12-17T10:57:22.465Z,1021.2
2017-12-17T10:58:31.439Z,1021.18
2017-12-17T10:59:40.262Z,1021.23
2017-12-17T11:00:49.089Z,1021.18
2017-12-17T11:01:57.913Z,1021.22
2017-12-17T11:03:06.737Z,1021.18
2017-12-17T11:04:15.613Z,1021.14
2017-12-17T11:05:24.435Z,1021.17
2017-12-17T11:06:33.263Z,1021.19
2017-12-17T11:07:42.096Z,1021.16
2017-12-17T11:08:50.910Z,1021.18
2017-12-17T11:09:59.834Z,1021.21
2017-12-17T11:11:08.658Z,1021.19
2017-12-17T11:12:17.482Z,1021.18
2017-12-17T11:13:26.308Z,1021.18
2017-12-17T11:14:35.134Z,1021.17
2017-12-17T11:15:44.010Z,1021.16
2017-12-17T11:16:52.834Z,1021.2
2017-12-17T11:18:01.658Z,1021.18
2017-12-17T11:19:10.764Z,1021.18
2017-12-17T11:20:19.865Z,1021.16
2017-12-17T11:21:28.741Z,1021.15
2017-12-17T11:22:37.841Z,1021.16
2017-12-17T11:23:46.666Z,1021.17
2017-12-17T11:24:55.493Z,1021.14
2017-12-17T11:26:04.318Z,1021.14
2017-12-17T11:27:13.145Z,1021.15
2017-12-17T11:28:21.968Z,1021.15
2017-12-17T11:29:30.793Z,1021.14
2017-12-17T11:30:39.617Z,1021.16
2017-12-17T11:31:48.446Z,1021.19
2017-12-17T11:32:57.269Z,1021.21
2017-12-17T11:34:06.094Z,1021.18
2017-12-17T11:35:14.918Z,1021.21
2017-12-17T11:36:23.742Z,1021.16
2017-12-17T11:37:32.565Z,1021.17
2017-12-17T11:38:41.389Z,1021.16
2017-12-17T11:39:50.215Z,1021.16
2017-12-17T11:40:59.036Z,1021.17
2017-12-17T11:42:07.867Z,1021.2
2017-12-17T11:43:16.967Z,1021.17
2017-12-17T11:44:25.794Z,1021.2
2017-12-17T11:45:34.622Z,1021.21
2017-12-17T11:46:43.445Z,1021.2
2017-12-17T11:47:52.270Z,1021.27
2017-12-17T11:49:01.094Z,1021.25
2017-12-17T11:50:10.068Z,1021.3
2017-12-17T11:51:18.895Z,1021.31
2017-12-17T11:52:27.995Z,1021.3
2017-12-17T11:53:36.822Z,1021.26
2017-12-17T11:54:45.649Z,1021.31
2017-12-17T11:55:54.744Z,1021.3
2017-12-17T11:57:03.568Z,1021.27
2017-12-17T11:58:12.393Z,1021.3
2017-12-17T11:59:21.219Z,1021.28
2017-12-17T12:00:30.047Z,1021.38
2017-12-17T12:01:38.869Z,1021.33
2017-12-17T12:02:47.697Z,1021.35
2017-12-17T12:03:56.526Z,1021.39
2017-12-17T12:05:05.346Z,1021.33
2017-12-17T12:06:14.172Z,1021.33
2017-12-17T12:07:23.329Z,1021.32
2017-12-17T12:08:32.155Z,1021.36
2017-12-17T12:09:40.981Z,1021.38
2017-12-17T12:10:50.085Z,1021.34
2017-12-17T12:11:59.184Z,1021.33
2017-12-17T12:13:08.015Z,1021.38
2017-12-17T12:14:16.838Z,1021.38
2017-12-17T12:15:25.666Z,1021.37
2017-12-17T12:16:34.491Z,1021.38
2017-12-17T12:17:43.316Z,1021.32
2017-12-17T12:18:52.445Z,1021.36
2017-12-17T12:20:01.269Z,1021.3
2017-12-17T12:21:10.372Z,1021.31
2017-12-17T12:22:19.198Z,1021.33
2017-12-17T12:23:28.024Z,1021.35
2017-12-17T12:24:37.123Z,1021.37
2017-12-17T12:25:45.945Z,1021.36
2017-12-17T12:26:54.770Z,1021.32
2017-12-17T12:28:03.595Z,1021.38
2017-12-17T12:29:12.421Z,1021.38
2017-12-17T12:30:21.245Z,1021.39
2017-12-17T12:31:30.072Z,1021.37
2017-12-17T12:32:38.917Z,1021.4
2017-12-17T12:33:48.077Z,1021.41
